sensor_id;sensor_type;location;lat;lon;timestamp;P1;durP1;ratioP1;P2;durP2;ratioP2
59766;SDS011;46248;58.364;25.582;2023-02-03T00:02:16;1.15;;;0.77;;
59766;SDS011;46248;58.364;25.582;2023-02-03T00:05:40;1.10;;;0.85;;
59766;SDS011;46248;58.364;25.582;2023-02-03T00:09:02;1.40;;;1.15;;
59766;SDS011;46248;58.364;25.582;2023-02-03T00:12:24;3.88;;;2.05;;
59766;SDS011;46248;58.364;25.582;2023-02-03T00:15:46;4.00;;;1.67;;
59766;SDS011;46248;58.364;25.582;2023-02-03T00:19:07;2.53;;;1.63;;
59766;SDS011;46248;58.364;25.582;2023-02-03T00:22:31;2.63;;;1.13;;
59766;SDS011;46248;58.364;25.582;2023-02-03T00:25:53;5.75;;;1.40;;
59766;SDS011;46248;58.364;25.582;2023-02-03T00:29:14;2.20;;;1.10;;
59766;SDS011;46248;58.364;25.582;2023-02-03T00:32:37;3.03;;;1.23;;
59766;SDS011;46248;58.364;25.582;2023-02-03T00:36:03;5.05;;;1.30;;
59766;SDS011;46248;58.364;25.582;2023-02-03T00:39:27;5.13;;;1.58;;
59766;SDS011;46248;58.364;25.582;2023-02-03T00:42:49;2.55;;;2.28;;
59766;SDS011;46248;58.364;25.582;2023-02-03T00:46:11;5.25;;;2.20;;
59766;SDS011;46248;58.364;25.582;2023-02-03T00:49:33;4.75;;;1.52;;
59766;SDS011;46248;58.364;25.582;2023-02-03T00:52:55;2.85;;;1.63;;
59766;SDS011;46248;58.364;25.582;2023-02-03T00:56:19;6.53;;;2.35;;
59766;SDS011;46248;58.364;25.582;2023-02-03T00:59:41;10.25;;;3.67;;
59766;SDS011;46248;58.364;25.582;2023-02-03T01:03:03;5.18;;;2.38;;
59766;SDS011;46248;58.364;25.582;2023-02-03T01:06:25;7.07;;;2.50;;
59766;SDS011;46248;58.364;25.582;2023-02-03T01:09:48;3.65;;;1.48;;
59766;SDS011;46248;58.364;25.582;2023-02-03T01:13:11;1.80;;;1.48;;
59766;SDS011;46248;58.364;25.582;2023-02-03T01:16:33;2.47;;;1.02;;
59766;SDS011;46248;58.364;25.582;2023-02-03T01:19:57;3.30;;;1.10;;
59766;SDS011;46248;58.364;25.582;2023-02-03T01:23:19;2.65;;;1.17;;
59766;SDS011;46248;58.364;25.582;2023-02-03T01:26:41;3.25;;;1.30;;
59766;SDS011;46248;58.364;25.582;2023-02-03T01:30:04;4.35;;;1.35;;
59766;SDS011;46248;58.364;25.582;2023-02-03T01:33:26;4.32;;;1.60;;
59766;SDS011;46248;58.364;25.582;2023-02-03T01:36:48;4.72;;;1.50;;
59766;SDS011;46248;58.364;25.582;2023-02-03T01:40:11;3.80;;;1.30;;
59766;SDS011;46248;58.364;25.582;2023-02-03T01:43:34;2.50;;;1.40;;
59766;SDS011;46248;58.364;25.582;2023-02-03T01:46:59;4.35;;;0.90;;
59766;SDS011;46248;58.364;25.582;2023-02-03T01:50:24;1.20;;;0.90;;
59766;SDS011;46248;58.364;25.582;2023-02-03T01:53:48;5.15;;;1.35;;
59766;SDS011;46248;58.364;25.582;2023-02-03T01:57:14;1.70;;;1.13;;
59766;SDS011;46248;58.364;25.582;2023-02-03T02:00:41;4.82;;;1.20;;
59766;SDS011;46248;58.364;25.582;2023-02-03T02:04:05;2.70;;;0.90;;
59766;SDS011;46248;58.364;25.582;2023-02-03T02:07:28;1.75;;;0.90;;
59766;SDS011;46248;58.364;25.582;2023-02-03T02:10:51;1.13;;;0.70;;
59766;SDS011;46248;58.364;25.582;2023-02-03T02:14:13;1.27;;;0.75;;
59766;SDS011;46248;58.364;25.582;2023-02-03T02:17:40;1.55;;;0.75;;
59766;SDS011;46248;58.364;25.582;2023-02-03T02:25:13;0.90;;;0.70;;
59766;SDS011;46248;58.364;25.582;2023-02-03T02:28:57;0.75;;;0.70;;
59766;SDS011;46248;58.364;25.582;2023-02-03T02:32:33;2.33;;;0.50;;
59766;SDS011;46248;58.364;25.582;2023-02-03T02:36:17;1.58;;;1.00;;
59766;SDS011;46248;58.364;25.582;2023-02-03T02:39:49;2.47;;;0.68;;
59766;SDS011;46248;58.364;25.582;2023-02-03T02:43:18;0.95;;;0.63;;
59766;SDS011;46248;58.364;25.582;2023-02-03T02:46:45;0.68;;;0.68;;
59766;SDS011;46248;58.364;25.582;2023-02-03T02:50:12;0.77;;;0.70;;
59766;SDS011;46248;58.364;25.582;2023-02-03T02:53:42;0.75;;;0.50;;
59766;SDS011;46248;58.364;25.582;2023-02-03T02:57:09;7.85;;;0.80;;
59766;SDS011;46248;58.364;25.582;2023-02-03T03:00:33;1.35;;;0.88;;
59766;SDS011;46248;58.364;25.582;2023-02-03T03:03:56;1.38;;;1.05;;
59766;SDS011;46248;58.364;25.582;2023-02-03T03:07:22;2.05;;;0.90;;
59766;SDS011;46248;58.364;25.582;2023-02-03T03:10:48;2.63;;;1.00;;
59766;SDS011;46248;58.364;25.582;2023-02-03T03:14:11;0.75;;;0.45;;
59766;SDS011;46248;58.364;25.582;2023-02-03T03:17:37;0.85;;;0.68;;
59766;SDS011;46248;58.364;25.582;2023-02-03T03:21:02;0.93;;;0.45;;
59766;SDS011;46248;58.364;25.582;2023-02-03T03:24:28;0.50;;;0.50;;
59766;SDS011;46248;58.364;25.582;2023-02-03T03:27:53;1.98;;;0.40;;
59766;SDS011;46248;58.364;25.582;2023-02-03T03:31:19;1.88;;;1.17;;
59766;SDS011;46248;58.364;25.582;2023-02-03T03:34:41;2.25;;;0.70;;
59766;SDS011;46248;58.364;25.582;2023-02-03T03:38:08;2.42;;;0.85;;
59766;SDS011;46248;58.364;25.582;2023-02-03T03:41:38;1.27;;;0.57;;
59766;SDS011;46248;58.364;25.582;2023-02-03T03:45:06;1.20;;;0.82;;
59766;SDS011;46248;58.364;25.582;2023-02-03T03:48:33;1.65;;;1.23;;
59766;SDS011;46248;58.364;25.582;2023-02-03T03:51:59;1.13;;;0.60;;
59766;SDS011;46248;58.364;25.582;2023-02-03T03:55:23;1.73;;;0.65;;
59766;SDS011;46248;58.364;25.582;2023-02-03T03:58:50;1.88;;;0.90;;
59766;SDS011;46248;58.364;25.582;2023-02-03T04:02:13;2.13;;;0.82;;
59766;SDS011;46248;58.364;25.582;2023-02-03T04:05:38;4.10;;;0.80;;
59766;SDS011;46248;58.364;25.582;2023-02-03T04:09:03;2.78;;;0.85;;
59766;SDS011;46248;58.364;25.582;2023-02-03T04:12:25;1.05;;;0.80;;
59766;SDS011;46248;58.364;25.582;2023-02-03T04:15:48;3.20;;;0.95;;
59766;SDS011;46248;58.364;25.582;2023-02-03T04:19:10;2.13;;;0.75;;
59766;SDS011;46248;58.364;25.582;2023-02-03T04:22:32;3.50;;;1.45;;
59766;SDS011;46248;58.364;25.582;2023-02-03T04:25:54;2.55;;;1.40;;
59766;SDS011;46248;58.364;25.582;2023-02-03T04:29:16;2.88;;;1.20;;
59766;SDS011;46248;58.364;25.582;2023-02-03T04:32:39;4.70;;;1.02;;
59766;SDS011;46248;58.364;25.582;2023-02-03T04:36:01;2.47;;;1.13;;
59766;SDS011;46248;58.364;25.582;2023-02-03T04:39:23;1.35;;;1.02;;
59766;SDS011;46248;58.364;25.582;2023-02-03T04:42:45;4.97;;;1.30;;
59766;SDS011;46248;58.364;25.582;2023-02-03T04:46:06;5.45;;;1.10;;
59766;SDS011;46248;58.364;25.582;2023-02-03T04:49:31;4.90;;;1.40;;
59766;SDS011;46248;58.364;25.582;2023-02-03T04:52:53;1.38;;;1.00;;
59766;SDS011;46248;58.364;25.582;2023-02-03T04:56:14;3.78;;;1.63;;
59766;SDS011;46248;58.364;25.582;2023-02-03T04:59:36;5.55;;;1.80;;
59766;SDS011;46248;58.364;25.582;2023-02-03T05:02:58;3.15;;;1.95;;
59766;SDS011;46248;58.364;25.582;2023-02-03T05:06:23;4.28;;;1.33;;
59766;SDS011;46248;58.364;25.582;2023-02-03T05:09:45;2.47;;;1.63;;
59766;SDS011;46248;58.364;25.582;2023-02-03T05:13:07;2.90;;;1.75;;
59766;SDS011;46248;58.364;25.582;2023-02-03T05:16:29;2.95;;;1.55;;
59766;SDS011;46248;58.364;25.582;2023-02-03T05:19:51;2.45;;;1.73;;
59766;SDS011;46248;58.364;25.582;2023-02-03T05:23:14;4.53;;;2.08;;
59766;SDS011;46248;58.364;25.582;2023-02-03T05:26:36;6.07;;;3.13;;
59766;SDS011;46248;58.364;25.582;2023-02-03T05:29:59;3.05;;;1.83;;
59766;SDS011;46248;58.364;25.582;2023-02-03T05:33:21;2.47;;;1.45;;
59766;SDS011;46248;58.364;25.582;2023-02-03T05:36:42;3.95;;;2.10;;
59766;SDS011;46248;58.364;25.582;2023-02-03T05:40:06;3.95;;;2.17;;
59766;SDS011;46248;58.364;25.582;2023-02-03T05:43:47;4.68;;;1.70;;
59766;SDS011;46248;58.364;25.582;2023-02-03T05:47:09;2.67;;;1.08;;
59766;SDS011;46248;58.364;25.582;2023-02-03T05:50:31;2.30;;;1.15;;
59766;SDS011;46248;58.364;25.582;2023-02-03T05:53:56;5.00;;;2.38;;
59766;SDS011;46248;58.364;25.582;2023-02-03T05:57:19;1.10;;;1.00;;
59766;SDS011;46248;58.364;25.582;2023-02-03T06:00:41;2.63;;;1.45;;
59766;SDS011;46248;58.364;25.582;2023-02-03T06:04:03;6.90;;;2.65;;
59766;SDS011;46248;58.364;25.582;2023-02-03T06:07:26;4.07;;;2.90;;
59766;SDS011;46248;58.364;25.582;2023-02-03T06:10:47;4.80;;;2.35;;
59766;SDS011;46248;58.364;25.582;2023-02-03T06:14:10;6.43;;;2.67;;
59766;SDS011;46248;58.364;25.582;2023-02-03T06:17:32;6.68;;;2.60;;
59766;SDS011;46248;58.364;25.582;2023-02-03T06:20:54;4.85;;;2.85;;
59766;SDS011;46248;58.364;25.582;2023-02-03T06:24:16;5.30;;;2.78;;
59766;SDS011;46248;58.364;25.582;2023-02-03T06:27:38;4.82;;;2.60;;
59766;SDS011;46248;58.364;25.582;2023-02-03T06:31:02;4.53;;;2.00;;
59766;SDS011;46248;58.364;25.582;2023-02-03T06:34:24;2.25;;;1.35;;
59766;SDS011;46248;58.364;25.582;2023-02-03T06:37:46;3.15;;;1.50;;
59766;SDS011;46248;58.364;25.582;2023-02-03T06:41:07;5.32;;;2.58;;
59766;SDS011;46248;58.364;25.582;2023-02-03T06:44:29;5.32;;;2.33;;
59766;SDS011;46248;58.364;25.582;2023-02-03T06:47:52;3.72;;;1.95;;
59766;SDS011;46248;58.364;25.582;2023-02-03T06:51:14;1.90;;;1.40;;
59766;SDS011;46248;58.364;25.582;2023-02-03T06:54:36;5.80;;;1.63;;
59766;SDS011;46248;58.364;25.582;2023-02-03T06:57:58;2.65;;;1.73;;
59766;SDS011;46248;58.364;25.582;2023-02-03T07:01:20;5.25;;;1.90;;
59766;SDS011;46248;58.364;25.582;2023-02-03T07:04:44;6.38;;;2.95;;
59766;SDS011;46248;58.364;25.582;2023-02-03T07:08:06;13.40;;;4.43;;
59766;SDS011;46248;58.364;25.582;2023-02-03T07:11:28;9.85;;;3.65;;
59766;SDS011;46248;58.364;25.582;2023-02-03T07:14:50;13.85;;;4.60;;
59766;SDS011;46248;58.364;25.582;2023-02-03T07:18:12;6.95;;;3.10;;
59766;SDS011;46248;58.364;25.582;2023-02-03T07:21:56;12.35;;;4.15;;
59766;SDS011;46248;58.364;25.582;2023-02-03T07:25:18;9.57;;;4.25;;
59766;SDS011;46248;58.364;25.582;2023-02-03T07:28:42;27.55;;;8.82;;
59766;SDS011;46248;58.364;25.582;2023-02-03T07:32:04;24.35;;;10.20;;
59766;SDS011;46248;58.364;25.582;2023-02-03T07:35:26;8.57;;;6.10;;
59766;SDS011;46248;58.364;25.582;2023-02-03T07:38:49;8.27;;;4.57;;
59766;SDS011;46248;58.364;25.582;2023-02-03T07:42:11;5.30;;;2.47;;
59766;SDS011;46248;58.364;25.582;2023-02-03T07:45:32;6.05;;;3.15;;
59766;SDS011;46248;58.364;25.582;2023-02-03T07:48:55;2.63;;;2.17;;
59766;SDS011;46248;58.364;25.582;2023-02-03T07:52:17;3.67;;;2.00;;
59766;SDS011;46248;58.364;25.582;2023-02-03T07:55:42;4.43;;;1.85;;
59766;SDS011;46248;58.364;25.582;2023-02-03T07:59:04;2.28;;;1.40;;
59766;SDS011;46248;58.364;25.582;2023-02-03T08:02:26;3.25;;;2.00;;
59766;SDS011;46248;58.364;25.582;2023-02-03T08:05:47;13.23;;;4.95;;
59766;SDS011;46248;58.364;25.582;2023-02-03T08:09:09;7.78;;;3.50;;
59766;SDS011;46248;58.364;25.582;2023-02-03T08:12:33;5.10;;;2.63;;
59766;SDS011;46248;58.364;25.582;2023-02-03T08:15:55;2.83;;;1.23;;
59766;SDS011;46248;58.364;25.582;2023-02-03T08:19:17;3.88;;;1.48;;
59766;SDS011;46248;58.364;25.582;2023-02-03T08:22:39;3.40;;;1.60;;
59766;SDS011;46248;58.364;25.582;2023-02-03T08:26:01;5.95;;;2.60;;
59766;SDS011;46248;58.364;25.582;2023-02-03T08:29:25;8.88;;;3.80;;
59766;SDS011;46248;58.364;25.582;2023-02-03T08:32:47;4.35;;;2.45;;
59766;SDS011;46248;58.364;25.582;2023-02-03T08:36:14;6.07;;;3.53;;
59766;SDS011;46248;58.364;25.582;2023-02-03T08:39:36;13.77;;;5.82;;
59766;SDS011;46248;58.364;25.582;2023-02-03T08:42:58;11.57;;;5.18;;
59766;SDS011;46248;58.364;25.582;2023-02-03T08:46:21;7.78;;;3.28;;
59766;SDS011;46248;58.364;25.582;2023-02-03T08:49:44;15.43;;;5.35;;
59766;SDS011;46248;58.364;25.582;2023-02-03T08:53:06;6.30;;;2.95;;
59766;SDS011;46248;58.364;25.582;2023-02-03T08:56:28;14.15;;;5.90;;
59766;SDS011;46248;58.364;25.582;2023-02-03T08:59:50;17.60;;;7.50;;
59766;SDS011;46248;58.364;25.582;2023-02-03T09:03:13;16.17;;;6.38;;
59766;SDS011;46248;58.364;25.582;2023-02-03T09:06:35;12.45;;;5.93;;
59766;SDS011;46248;58.364;25.582;2023-02-03T09:09:58;8.95;;;3.40;;
59766;SDS011;46248;58.364;25.582;2023-02-03T09:13:20;4.35;;;2.60;;
59766;SDS011;46248;58.364;25.582;2023-02-03T09:16:42;7.07;;;3.50;;
59766;SDS011;46248;58.364;25.582;2023-02-03T09:20:06;10.68;;;5.55;;
59766;SDS011;46248;58.364;25.582;2023-02-03T09:23:32;6.70;;;2.83;;
59766;SDS011;46248;58.364;25.582;2023-02-03T09:26:54;6.75;;;3.90;;
59766;SDS011;46248;58.364;25.582;2023-02-03T09:30:17;8.60;;;3.38;;
59766;SDS011;46248;58.364;25.582;2023-02-03T09:33:40;11.85;;;4.80;;
59766;SDS011;46248;58.364;25.582;2023-02-03T09:37:04;4.45;;;2.83;;
59766;SDS011;46248;58.364;25.582;2023-02-03T09:40:26;8.13;;;4.10;;
59766;SDS011;46248;58.364;25.582;2023-02-03T09:43:54;8.20;;;2.95;;
59766;SDS011;46248;58.364;25.582;2023-02-03T09:47:22;20.15;;;6.45;;
59766;SDS011;46248;58.364;25.582;2023-02-03T09:50:47;33.45;;;10.93;;
59766;SDS011;46248;58.364;25.582;2023-02-03T09:54:14;23.15;;;6.82;;
59766;SDS011;46248;58.364;25.582;2023-02-03T09:57:41;7.55;;;3.22;;
59766;SDS011;46248;58.364;25.582;2023-02-03T10:01:07;10.13;;;4.25;;
59766;SDS011;46248;58.364;25.582;2023-02-03T10:04:36;13.40;;;5.40;;
59766;SDS011;46248;58.364;25.582;2023-02-03T10:08:04;7.45;;;3.92;;
59766;SDS011;46248;58.364;25.582;2023-02-03T10:11:47;10.02;;;4.88;;
59766;SDS011;46248;58.364;25.582;2023-02-03T10:19:10;8.43;;;4.50;;
59766;SDS011;46248;58.364;25.582;2023-02-03T10:22:40;14.13;;;3.55;;
59766;SDS011;46248;58.364;25.582;2023-02-03T10:26:06;7.78;;;3.65;;
59766;SDS011;46248;58.364;25.582;2023-02-03T10:29:36;7.05;;;3.40;;
59766;SDS011;46248;58.364;25.582;2023-02-03T10:33:08;10.60;;;3.88;;
59766;SDS011;46248;58.364;25.582;2023-02-03T10:36:34;11.43;;;4.40;;
59766;SDS011;46248;58.364;25.582;2023-02-03T10:40:03;7.07;;;2.03;;
59766;SDS011;46248;58.364;25.582;2023-02-03T10:43:26;7.07;;;3.80;;
59766;SDS011;46248;58.364;25.582;2023-02-03T10:47:31;7.63;;;3.45;;
59766;SDS011;46248;58.364;25.582;2023-02-03T10:50:55;3.42;;;2.40;;
59766;SDS011;46248;58.364;25.582;2023-02-03T10:54:25;6.07;;;3.10;;
59766;SDS011;46248;58.364;25.582;2023-02-03T10:57:49;2.08;;;1.30;;
59766;SDS011;46248;58.364;25.582;2023-02-03T11:01:13;5.10;;;2.80;;
59766;SDS011;46248;58.364;25.582;2023-02-03T11:04:37;2.83;;;1.42;;
59766;SDS011;46248;58.364;25.582;2023-02-03T11:08:00;5.28;;;1.98;;
59766;SDS011;46248;58.364;25.582;2023-02-03T11:11:23;3.40;;;1.70;;
59766;SDS011;46248;58.364;25.582;2023-02-03T11:14:47;3.70;;;2.20;;
59766;SDS011;46248;58.364;25.582;2023-02-03T11:22:09;5.55;;;2.90;;
59766;SDS011;46248;58.364;25.582;2023-02-03T11:25:32;4.85;;;1.73;;
59766;SDS011;46248;58.364;25.582;2023-02-03T11:28:55;3.20;;;1.40;;
59766;SDS011;46248;58.364;25.582;2023-02-03T11:32:19;5.60;;;2.03;;
59766;SDS011;46248;58.364;25.582;2023-02-03T11:35:52;4.63;;;2.20;;
59766;SDS011;46248;58.364;25.582;2023-02-03T11:39:19;3.35;;;1.40;;
59766;SDS011;46248;58.364;25.582;2023-02-03T11:42:57;4.00;;;2.20;;
59766;SDS011;46248;58.364;25.582;2023-02-03T11:46:21;5.68;;;2.00;;
59766;SDS011;46248;58.364;25.582;2023-02-03T11:53:40;2.63;;;1.65;;
59766;SDS011;46248;58.364;25.582;2023-02-03T11:57:22;8.52;;;3.53;;
59766;SDS011;46248;58.364;25.582;2023-02-03T12:00:56;6.85;;;3.55;;
59766;SDS011;46248;58.364;25.582;2023-02-03T12:04:28;8.10;;;2.72;;
59766;SDS011;46248;58.364;25.582;2023-02-03T12:08:07;2.80;;;1.42;;
59766;SDS011;46248;58.364;25.582;2023-02-03T12:11:45;1.70;;;1.27;;
59766;SDS011;46248;58.364;25.582;2023-02-03T12:15:26;2.53;;;1.48;;
59766;SDS011;46248;58.364;25.582;2023-02-03T12:19:03;3.45;;;1.75;;
59766;SDS011;46248;58.364;25.582;2023-02-03T12:22:35;7.50;;;2.20;;
59766;SDS011;46248;58.364;25.582;2023-02-03T12:26:10;5.97;;;2.08;;
59766;SDS011;46248;58.364;25.582;2023-02-03T12:29:40;9.70;;;3.83;;
59766;SDS011;46248;58.364;25.582;2023-02-03T12:33:10;4.93;;;2.42;;
59766;SDS011;46248;58.364;25.582;2023-02-03T12:36:39;6.50;;;2.85;;
59766;SDS011;46248;58.364;25.582;2023-02-03T12:40:05;7.88;;;2.88;;
59766;SDS011;46248;58.364;25.582;2023-02-03T12:43:37;8.85;;;2.90;;
59766;SDS011;46248;58.364;25.582;2023-02-03T12:47:03;8.23;;;2.90;;
59766;SDS011;46248;58.364;25.582;2023-02-03T12:50:35;3.72;;;2.20;;
59766;SDS011;46248;58.364;25.582;2023-02-03T12:54:02;3.28;;;1.85;;
59766;SDS011;46248;58.364;25.582;2023-02-03T12:57:28;24.10;;;7.60;;
59766;SDS011;46248;58.364;25.582;2023-02-03T13:00:55;14.10;;;5.82;;
59766;SDS011;46248;58.364;25.582;2023-02-03T13:04:23;6.25;;;2.88;;
59766;SDS011;46248;58.364;25.582;2023-02-03T13:07:52;26.50;;;8.75;;
59766;SDS011;46248;58.364;25.582;2023-02-03T13:11:21;29.20;;;8.48;;
59766;SDS011;46248;58.364;25.582;2023-02-03T13:14:48;31.73;;;9.05;;
59766;SDS011;46248;58.364;25.582;2023-02-03T13:18:17;69.03;;;14.82;;
59766;SDS011;46248;58.364;25.582;2023-02-03T13:21:46;76.88;;;16.30;;
59766;SDS011;46248;58.364;25.582;2023-02-03T13:25:13;113.65;;;27.35;;
59766;SDS011;46248;58.364;25.582;2023-02-03T13:28:47;131.88;;;32.58;;
59766;SDS011;46248;58.364;25.582;2023-02-03T13:32:21;121.15;;;29.60;;
59766;SDS011;46248;58.364;25.582;2023-02-03T13:35:56;69.82;;;22.50;;
59766;SDS011;46248;58.364;25.582;2023-02-03T13:39:38;46.53;;;16.67;;
59766;SDS011;46248;58.364;25.582;2023-02-03T13:43:11;32.10;;;11.23;;
59766;SDS011;46248;58.364;25.582;2023-02-03T13:46:56;27.60;;;8.93;;
59766;SDS011;46248;58.364;25.582;2023-02-03T13:50:20;36.22;;;10.70;;
59766;SDS011;46248;58.364;25.582;2023-02-03T13:53:44;15.82;;;6.00;;
59766;SDS011;46248;58.364;25.582;2023-02-03T13:57:17;22.38;;;8.48;;
59766;SDS011;46248;58.364;25.582;2023-02-03T14:01:00;22.17;;;7.97;;
59766;SDS011;46248;58.364;25.582;2023-02-03T14:12:20;11.80;;;3.72;;
59766;SDS011;46248;58.364;25.582;2023-02-03T14:23:27;6.20;;;4.60;;
59766;SDS011;46248;58.364;25.582;2023-02-03T14:26:59;26.52;;;9.80;;
59766;SDS011;46248;58.364;25.582;2023-02-03T14:30:24;16.70;;;7.30;;
59766;SDS011;46248;58.364;25.582;2023-02-03T14:33:57;12.15;;;5.43;;
59766;SDS011;46248;58.364;25.582;2023-02-03T14:37:31;17.65;;;5.95;;
59766;SDS011;46248;58.364;25.582;2023-02-03T14:40:55;8.07;;;3.97;;
59766;SDS011;46248;58.364;25.582;2023-02-03T14:44:24;13.20;;;6.47;;
59766;SDS011;46248;58.364;25.582;2023-02-03T14:47:59;27.33;;;10.65;;
59766;SDS011;46248;58.364;25.582;2023-02-03T14:51:39;47.80;;;14.98;;
59766;SDS011;46248;58.364;25.582;2023-02-03T14:59:01;41.67;;;13.40;;
59766;SDS011;46248;58.364;25.582;2023-02-03T15:02:25;46.35;;;16.63;;
59766;SDS011;46248;58.364;25.582;2023-02-03T15:05:51;26.85;;;10.65;;
59766;SDS011;46248;58.364;25.582;2023-02-03T15:09:17;13.90;;;6.43;;
59766;SDS011;46248;58.364;25.582;2023-02-03T15:12:46;17.17;;;5.88;;
59766;SDS011;46248;58.364;25.582;2023-02-03T15:16:11;10.30;;;5.43;;
59766;SDS011;46248;58.364;25.582;2023-02-03T15:19:39;7.97;;;4.55;;
59766;SDS011;46248;58.364;25.582;2023-02-03T15:23:15;19.55;;;8.20;;
59766;SDS011;46248;58.364;25.582;2023-02-03T15:26:45;22.48;;;9.38;;
59766;SDS011;46248;58.364;25.582;2023-02-03T15:30:13;23.45;;;9.80;;
59766;SDS011;46248;58.364;25.582;2023-02-03T15:33:36;22.10;;;9.80;;
59766;SDS011;46248;58.364;25.582;2023-02-03T15:36:59;14.95;;;8.52;;
59766;SDS011;46248;58.364;25.582;2023-02-03T15:40:28;21.05;;;9.70;;
59766;SDS011;46248;58.364;25.582;2023-02-03T15:43:59;26.92;;;11.05;;
59766;SDS011;46248;58.364;25.582;2023-02-03T15:47:29;47.85;;;17.50;;
59766;SDS011;46248;58.364;25.582;2023-02-03T15:50:54;55.50;;;20.55;;
59766;SDS011;46248;58.364;25.582;2023-02-03T15:54:20;45.13;;;17.60;;
59766;SDS011;46248;58.364;25.582;2023-02-03T15:57:49;41.97;;;15.60;;
59766;SDS011;46248;58.364;25.582;2023-02-03T16:01:13;20.90;;;9.63;;
59766;SDS011;46248;58.364;25.582;2023-02-03T16:04:39;15.75;;;6.45;;
59766;SDS011;46248;58.364;25.582;2023-02-03T16:11:50;12.70;;;5.20;;
59766;SDS011;46248;58.364;25.582;2023-02-03T16:15:38;12.35;;;8.40;;
59766;SDS011;46248;58.364;25.582;2023-02-03T16:19:03;18.30;;;9.93;;
59766;SDS011;46248;58.364;25.582;2023-02-03T16:22:27;21.30;;;10.60;;
59766;SDS011;46248;58.364;25.582;2023-02-03T16:26:01;15.40;;;8.85;;
59766;SDS011;46248;58.364;25.582;2023-02-03T16:29:27;13.55;;;7.45;;
59766;SDS011;46248;58.364;25.582;2023-02-03T16:33:15;11.15;;;6.40;;
59766;SDS011;46248;58.364;25.582;2023-02-03T16:36:56;14.50;;;6.10;;
59766;SDS011;46248;58.364;25.582;2023-02-03T16:40:36;12.18;;;5.03;;
59766;SDS011;46248;58.364;25.582;2023-02-03T16:44:17;6.15;;;3.70;;
59766;SDS011;46248;58.364;25.582;2023-02-03T16:47:56;94.25;;;29.85;;
59766;SDS011;46248;58.364;25.582;2023-02-03T16:51:37;159.15;;;56.28;;
59766;SDS011;46248;58.364;25.582;2023-02-03T16:55:02;149.85;;;53.83;;
59766;SDS011;46248;58.364;25.582;2023-02-03T16:58:25;56.55;;;22.70;;
59766;SDS011;46248;58.364;25.582;2023-02-03T17:01:48;81.10;;;36.25;;
59766;SDS011;46248;58.364;25.582;2023-02-03T17:05:10;56.22;;;26.70;;
59766;SDS011;46248;58.364;25.582;2023-02-03T17:08:32;45.17;;;19.30;;
59766;SDS011;46248;58.364;25.582;2023-02-03T17:11:56;32.20;;;14.25;;
59766;SDS011;46248;58.364;25.582;2023-02-03T17:15:18;26.05;;;12.65;;
59766;SDS011;46248;58.364;25.582;2023-02-03T17:18:40;49.65;;;19.52;;
59766;SDS011;46248;58.364;25.582;2023-02-03T17:22:02;43.65;;;18.00;;
59766;SDS011;46248;58.364;25.582;2023-02-03T17:25:24;55.00;;;22.90;;
59766;SDS011;46248;58.364;25.582;2023-02-03T17:28:48;69.05;;;28.83;;
59766;SDS011;46248;58.364;25.582;2023-02-03T17:32:10;64.25;;;22.45;;
59766;SDS011;46248;58.364;25.582;2023-02-03T17:35:34;22.77;;;9.25;;
59766;SDS011;46248;58.364;25.582;2023-02-03T17:38:56;15.60;;;7.80;;
59766;SDS011;46248;58.364;25.582;2023-02-03T17:42:38;18.27;;;7.25;;
59766;SDS011;46248;58.364;25.582;2023-02-03T17:46:19;11.57;;;5.47;;
59766;SDS011;46248;58.364;25.582;2023-02-03T17:50:01;7.95;;;4.32;;
59766;SDS011;46248;58.364;25.582;2023-02-03T17:57:02;16.25;;;7.45;;
59766;SDS011;46248;58.364;25.582;2023-02-03T18:00:24;16.23;;;6.43;;
59766;SDS011;46248;58.364;25.582;2023-02-03T18:03:48;24.75;;;10.88;;
59766;SDS011;46248;58.364;25.582;2023-02-03T18:07:11;31.80;;;14.05;;
59766;SDS011;46248;58.364;25.582;2023-02-03T18:10:33;29.25;;;10.25;;
59766;SDS011;46248;58.364;25.582;2023-02-03T18:13:56;31.23;;;12.77;;
59766;SDS011;46248;58.364;25.582;2023-02-03T18:17:19;29.85;;;12.35;;
59766;SDS011;46248;58.364;25.582;2023-02-03T18:20:42;119.32;;;36.25;;
59766;SDS011;46248;58.364;25.582;2023-02-03T18:24:05;32.55;;;14.02;;
59766;SDS011;46248;58.364;25.582;2023-02-03T18:27:28;50.38;;;20.20;;
59766;SDS011;46248;58.364;25.582;2023-02-03T18:30:50;16.88;;;9.63;;
59766;SDS011;46248;58.364;25.582;2023-02-03T18:34:12;11.95;;;6.05;;
59766;SDS011;46248;58.364;25.582;2023-02-03T18:37:35;15.55;;;7.93;;
59766;SDS011;46248;58.364;25.582;2023-02-03T18:40:57;14.68;;;7.65;;
59766;SDS011;46248;58.364;25.582;2023-02-03T18:44:19;8.95;;;5.15;;
59766;SDS011;46248;58.364;25.582;2023-02-03T18:47:41;15.32;;;6.90;;
59766;SDS011;46248;58.364;25.582;2023-02-03T18:51:06;18.48;;;6.30;;
59766;SDS011;46248;58.364;25.582;2023-02-03T18:54:30;23.45;;;9.90;;
59766;SDS011;46248;58.364;25.582;2023-02-03T18:57:52;23.83;;;8.50;;
59766;SDS011;46248;58.364;25.582;2023-02-03T19:01:21;12.63;;;5.57;;
59766;SDS011;46248;58.364;25.582;2023-02-03T19:18:30;9.90;;;4.28;;
59766;SDS011;46248;58.364;25.582;2023-02-03T19:21:52;13.65;;;5.65;;
59766;SDS011;46248;58.364;25.582;2023-02-03T19:25:14;14.73;;;5.05;;
59766;SDS011;46248;58.364;25.582;2023-02-03T19:28:37;12.88;;;4.63;;
59766;SDS011;46248;58.364;25.582;2023-02-03T19:31:59;9.80;;;4.63;;
59766;SDS011;46248;58.364;25.582;2023-02-03T19:35:22;9.65;;;4.35;;
59766;SDS011;46248;58.364;25.582;2023-02-03T19:38:44;11.20;;;3.42;;
59766;SDS011;46248;58.364;25.582;2023-02-03T19:42:06;10.52;;;4.72;;
59766;SDS011;46248;58.364;25.582;2023-02-03T19:45:28;13.10;;;3.75;;
59766;SDS011;46248;58.364;25.582;2023-02-03T19:48:50;5.88;;;2.92;;
59766;SDS011;46248;58.364;25.582;2023-02-03T19:52:13;13.45;;;4.47;;
59766;SDS011;46248;58.364;25.582;2023-02-03T19:55:35;7.70;;;3.45;;
59766;SDS011;46248;58.364;25.582;2023-02-03T19:58:57;7.07;;;3.35;;
59766;SDS011;46248;58.364;25.582;2023-02-03T20:02:19;10.77;;;4.38;;
59766;SDS011;46248;58.364;25.582;2023-02-03T20:05:41;6.15;;;2.60;;
59766;SDS011;46248;58.364;25.582;2023-02-03T20:09:04;7.15;;;2.42;;
59766;SDS011;46248;58.364;25.582;2023-02-03T20:12:26;7.75;;;3.17;;
59766;SDS011;46248;58.364;25.582;2023-02-03T20:15:49;16.17;;;5.25;;
59766;SDS011;46248;58.364;25.582;2023-02-03T20:19:11;14.07;;;6.28;;
59766;SDS011;46248;58.364;25.582;2023-02-03T20:22:33;10.77;;;4.22;;
59766;SDS011;46248;58.364;25.582;2023-02-03T20:25:56;14.43;;;5.82;;
59766;SDS011;46248;58.364;25.582;2023-02-03T20:29:19;11.32;;;5.75;;
59766;SDS011;46248;58.364;25.582;2023-02-03T20:32:42;15.35;;;5.95;;
59766;SDS011;46248;58.364;25.582;2023-02-03T20:36:04;13.55;;;5.63;;
59766;SDS011;46248;58.364;25.582;2023-02-03T20:39:29;7.47;;;3.40;;
59766;SDS011;46248;58.364;25.582;2023-02-03T20:42:54;11.02;;;3.85;;
59766;SDS011;46248;58.364;25.582;2023-02-03T20:46:17;8.90;;;3.22;;
59766;SDS011;46248;58.364;25.582;2023-02-03T20:49:40;9.32;;;2.92;;
59766;SDS011;46248;58.364;25.582;2023-02-03T20:53:03;10.77;;;3.42;;
59766;SDS011;46248;58.364;25.582;2023-02-03T20:56:28;12.02;;;4.28;;
59766;SDS011;46248;58.364;25.582;2023-02-03T20:59:51;11.30;;;3.42;;
59766;SDS011;46248;58.364;25.582;2023-02-03T21:03:14;6.63;;;3.70;;
59766;SDS011;46248;58.364;25.582;2023-02-03T21:06:55;5.32;;;2.20;;
59766;SDS011;46248;58.364;25.582;2023-02-03T21:10:18;6.35;;;2.75;;